PWSweather.com
Personal Weather Stations
Station Observations
DEEPSOUTH
Waverley, InvercargillNZ 9810

WaverleyInvercargillNZ 9810

Lat: -46.3926834, Lon: 168.381112

Elevation: 72

Station Type: Davis VP2

http://www.deepsouthweather.co.nz/

Latest ConditionsUpdated 2:40:02 PM GMT+11:11 Tuesday, Oct 21, 2014
Currently Today's Max Today's Min Today's Average
Temperature 56.7°F13.7°C 57.0°F13.9°C 43.0°F6.1°C 49.2°F9.6°C
Dew Point 49.9°F9.9°C 50.9°F10.5°C 40.1°F4.5°C 45.5°F7.5°C
Winds 8.0 mph WSW12.9 kmh WSW 15.0 mph WSW24.1 kmh WSW - 9.1 mph 14.6 kmh
Wind Gusts 22.0 mph35.4 kmh 36.0 mph57.9 kmh - -
Humidity 78% 96% 76% 88%
Pressure 30.20 in1022.7 mb 30.20 in1022.7 mb 30.05 in1017.6 mb -
Precipitation - 0.13 in3.3 mm - -
Hour Temp Dew Point Humidity Winds Wind Gusts Pressure Precip Precip Rate Daily Precip Total
02:40 PM 56.7°F13.7°C 49.9°F9.9°C 78% 8.0 mph WSW12.9 kmh WSW 22.0 mph35.4 kmh 30.20 in1022.7 mb 0.00 in0.0 mm 0.00 in/hr0.0 mm/hr 0.13 in3.3 mm
02:30 PM 54.9°F12.7°C 49.1°F9.5°C 81% 11.0 mph WSW17.7 kmh WSW 23.0 mph37.0 kmh 30.20 in1022.7 mb 0.00 in0.0 mm 0.00 in/hr0.0 mm/hr 0.13 in3.3 mm
02:20 PM 55.9°F13.3°C 49.2°F9.6°C 78% 10.0 mph WSW16.1 kmh WSW 21.0 mph33.8 kmh 30.20 in1022.7 mb 0.00 in0.0 mm 0.00 in/hr0.0 mm/hr 0.13 in3.3 mm
02:10 PM 56.5°F13.6°C 49.0°F9.4°C 76% 11.0 mph WSW17.7 kmh WSW 21.0 mph33.8 kmh 30.20 in1022.7 mb 0.00 in0.0 mm 0.00 in/hr0.0 mm/hr 0.13 in3.3 mm
02:00 PM 56.7°F13.7°C 49.5°F9.7°C 77% 10.0 mph WSW16.1 kmh WSW 25.0 mph40.2 kmh 30.20 in1022.7 mb 0.00 in0.0 mm 0.00 in/hr0.0 mm/hr 0.13 in3.3 mm
01:50 PM 56.7°F13.7°C 50.6°F10.3°C 80% 8.0 mph WSW12.9 kmh WSW 20.0 mph32.2 kmh 30.20 in1022.7 mb 0.00 in0.0 mm 0.00 in/hr0.0 mm/hr 0.13 in3.3 mm
01:40 PM 56.5°F13.6°C 50.0°F10.0°C 79% 9.0 mph WSW14.5 kmh WSW 19.0 mph30.6 kmh 30.20 in1022.7 mb 0.00 in0.0 mm 0.00 in/hr0.0 mm/hr 0.13 in3.3 mm
01:30 PM 55.8°F13.2°C 49.7°F9.8°C 80% 12.0 mph WSW19.3 kmh WSW 25.0 mph40.2 kmh 30.20 in1022.7 mb 0.00 in0.0 mm 0.00 in/hr0.0 mm/hr 0.13 in3.3 mm
01:20 PM 56.7°F13.7°C 49.9°F9.9°C 78% 11.0 mph WSW17.7 kmh WSW 20.0 mph32.2 kmh 30.19 in1022.4 mb 0.00 in0.0 mm 0.00 in/hr0.0 mm/hr 0.13 in3.3 mm
01:10 PM 56.5°F13.6°C 49.0°F9.4°C 76% 10.0 mph SW16.1 kmh SW 21.0 mph33.8 kmh 30.19 in1022.4 mb 0.00 in0.0 mm 0.00 in/hr0.0 mm/hr 0.13 in3.3 mm
01:00 PM 55.9°F13.3°C 49.2°F9.6°C 78% 14.0 mph WSW22.5 kmh WSW 24.0 mph38.6 kmh 30.19 in1022.4 mb 0.00 in0.0 mm 0.00 in/hr0.0 mm/hr 0.13 in3.3 mm
12:50 PM 57.0°F13.9°C 49.9°F9.9°C 77% 11.0 mph WSW17.7 kmh WSW 24.0 mph38.6 kmh 30.19 in1022.4 mb 0.00 in0.0 mm 0.00 in/hr0.0 mm/hr 0.13 in3.3 mm
12:40 PM 56.3°F13.5°C 49.2°F9.6°C 77% 14.0 mph WSW22.5 kmh WSW 26.0 mph41.8 kmh 30.18 in1022.0 mb 0.00 in0.0 mm 0.00 in/hr0.0 mm/hr 0.13 in3.3 mm
12:30 PM 55.8°F13.2°C 49.7°F9.8°C 80% 15.0 mph WSW24.1 kmh WSW 30.0 mph48.3 kmh 30.18 in1022.0 mb 0.00 in0.0 mm 0.00 in/hr0.0 mm/hr 0.13 in3.3 mm
12:20 PM 56.1°F13.4°C 49.4°F9.7°C 78% 13.0 mph SW20.9 kmh SW 26.0 mph41.8 kmh 30.18 in1022.0 mb 0.00 in0.0 mm 0.00 in/hr0.0 mm/hr 0.13 in3.3 mm
12:10 PM 56.1°F13.4°C 50.0°F10.0°C 80% 11.0 mph SW17.7 kmh SW 26.0 mph41.8 kmh 30.18 in1022.0 mb 0.00 in0.0 mm 0.00 in/hr0.0 mm/hr 0.13 in3.3 mm
12:00 PM 55.9°F13.3°C 49.5°F9.7°C 79% 13.0 mph WSW20.9 kmh WSW 24.0 mph38.6 kmh 30.18 in1022.0 mb 0.00 in0.0 mm 0.00 in/hr0.0 mm/hr 0.13 in3.3 mm
11:50 AM 55.9°F13.3°C 49.5°F9.7°C 79% 12.0 mph WSW19.3 kmh WSW 25.0 mph40.2 kmh 30.17 in1021.7 mb 0.00 in0.0 mm 0.00 in/hr0.0 mm/hr 0.13 in3.3 mm
11:40 AM 55.6°F13.1°C 49.8°F9.9°C 81% 11.0 mph WSW17.7 kmh WSW 21.0 mph33.8 kmh 30.17 in1021.7 mb 0.00 in0.0 mm 0.00 in/hr0.0 mm/hr 0.13 in3.3 mm
11:30 AM 53.4°F11.9°C 48.4°F9.1°C 83% 10.0 mph WSW16.1 kmh WSW 22.0 mph35.4 kmh 30.17 in1021.7 mb 0.00 in0.0 mm 0.00 in/hr0.0 mm/hr 0.13 in3.3 mm
11:20 AM 53.1°F11.7°C 49.0°F9.4°C 86% 12.0 mph WSW19.3 kmh WSW 28.0 mph45.1 kmh 30.18 in1022.0 mb 0.00 in0.0 mm 0.00 in/hr0.0 mm/hr 0.13 in3.3 mm
11:10 AM 56.1°F13.4°C 50.4°F10.2°C 81% 9.0 mph WSW14.5 kmh WSW 23.0 mph37.0 kmh 30.17 in1021.7 mb 0.00 in0.0 mm 0.00 in/hr0.0 mm/hr 0.13 in3.3 mm
11:00 AM 54.0°F12.2°C 48.6°F9.2°C 82% 11.0 mph WSW17.7 kmh WSW 24.0 mph38.6 kmh 30.16 in1021.3 mb 0.00 in0.0 mm 0.00 in/hr0.0 mm/hr 0.13 in3.3 mm
10:50 AM 54.1°F12.3°C 48.8°F9.3°C 82% 12.0 mph WSW19.3 kmh WSW 25.0 mph40.2 kmh 30.16 in1021.3 mb 0.00 in0.0 mm 0.00 in/hr0.0 mm/hr 0.13 in3.3 mm
10:40 AM 55.9°F13.3°C 49.9°F9.9°C 80% 14.0 mph WSW22.5 kmh WSW 36.0 mph57.9 kmh 30.16 in1021.3 mb 0.00 in0.0 mm 0.00 in/hr0.0 mm/hr 0.13 in3.3 mm
10:30 AM 55.9°F13.3°C 50.9°F10.5°C 83% 12.0 mph WSW19.3 kmh WSW 25.0 mph40.2 kmh 30.16 in1021.3 mb 0.00 in0.0 mm 0.00 in/hr0.0 mm/hr 0.13 in3.3 mm
10:20 AM 55.4°F13.0°C 50.6°F10.3°C 84% 11.0 mph WSW17.7 kmh WSW 26.0 mph41.8 kmh 30.16 in1021.3 mb 0.00 in0.0 mm 0.00 in/hr0.0 mm/hr 0.13 in3.3 mm
10:10 AM 55.0°F12.8°C 49.6°F9.8°C 82% 12.0 mph WSW19.3 kmh WSW 24.0 mph38.6 kmh 30.16 in1021.3 mb 0.00 in0.0 mm 0.00 in/hr0.0 mm/hr 0.13 in3.3 mm
10:00 AM 55.0°F12.8°C 50.0°F10.0°C 83% 11.0 mph W17.7 kmh W 23.0 mph37.0 kmh 30.16 in1021.3 mb 0.01 in0.3 mm 0.00 in/hr0.0 mm/hr 0.13 in3.3 mm
09:50 AM 55.8°F13.2°C 50.0°F10.0°C 81% 10.0 mph WSW16.1 kmh WSW 23.0 mph37.0 kmh 30.16 in1021.3 mb 0.01 in0.3 mm 0.00 in/hr0.0 mm/hr 0.13 in3.3 mm
09:40 AM 54.7°F12.6°C 49.9°F9.9°C 84% 10.0 mph WSW16.1 kmh WSW 20.0 mph32.2 kmh 30.15 in1021.0 mb 0.01 in0.3 mm 0.00 in/hr0.0 mm/hr 0.13 in3.3 mm
09:30 AM 53.1°F11.7°C 49.6°F9.8°C 88% 9.0 mph WSW14.5 kmh WSW 21.0 mph33.8 kmh 30.16 in1021.3 mb 0.01 in0.3 mm 0.00 in/hr0.0 mm/hr 0.13 in3.3 mm
09:20 AM 51.8°F11.0°C 49.0°F9.4°C 90% 11.0 mph WSW17.7 kmh WSW 25.0 mph40.2 kmh 30.16 in1021.3 mb 0.01 in0.3 mm 0.00 in/hr0.0 mm/hr 0.13 in3.3 mm
09:10 AM 52.3°F11.3°C 49.2°F9.6°C 89% 11.0 mph WSW17.7 kmh WSW 25.0 mph40.2 kmh 30.15 in1021.0 mb 0.01 in0.3 mm 0.06 in/hr1.5 mm/hr 0.13 in3.3 mm
09:00 AM 51.6°F10.9°C 48.5°F9.2°C 89% 12.0 mph WSW19.3 kmh WSW 24.0 mph38.6 kmh 30.16 in1021.3 mb 0.00 in0.0 mm 0.00 in/hr0.0 mm/hr 0.13 in3.3 mm
08:50 AM 52.2°F11.2°C 48.7°F9.3°C 88% 11.0 mph WSW17.7 kmh WSW 20.0 mph32.2 kmh 30.15 in1021.0 mb 0.00 in0.0 mm 0.00 in/hr0.0 mm/hr 0.13 in3.3 mm
08:40 AM 51.8°F11.0°C 49.0°F9.4°C 90% 9.0 mph WSW14.5 kmh WSW 19.0 mph30.6 kmh 30.14 in1020.7 mb 0.00 in0.0 mm 0.00 in/hr0.0 mm/hr 0.13 in3.3 mm
08:30 AM 51.4°F10.8°C 49.2°F9.6°C 92% 10.0 mph WSW16.1 kmh WSW 23.0 mph37.0 kmh 30.14 in1020.7 mb 0.00 in0.0 mm 0.00 in/hr0.0 mm/hr 0.13 in3.3 mm
08:20 AM 50.9°F10.5°C 48.9°F9.4°C 93% 10.0 mph W16.1 kmh W 21.0 mph33.8 kmh 30.13 in1020.3 mb 0.00 in0.0 mm 0.00 in/hr0.0 mm/hr 0.13 in3.3 mm
08:10 AM 50.5°F10.3°C 48.6°F9.2°C 93% 8.0 mph WSW12.9 kmh WSW 15.0 mph24.1 kmh 30.13 in1020.3 mb 0.00 in0.0 mm 0.00 in/hr0.0 mm/hr 0.13 in3.3 mm
08:00 AM 50.2°F10.1°C 48.5°F9.2°C 94% 8.0 mph WSW12.9 kmh WSW 22.0 mph35.4 kmh 30.13 in1020.3 mb 0.00 in0.0 mm 0.00 in/hr0.0 mm/hr 0.13 in3.3 mm
07:50 AM 49.8°F9.9°C 48.4°F9.1°C 95% 8.0 mph W12.9 kmh W 19.0 mph30.6 kmh 30.13 in1020.3 mb 0.01 in0.3 mm 0.00 in/hr0.0 mm/hr 0.13 in3.3 mm
07:40 AM 49.6°F9.8°C 48.5°F9.2°C 96% 9.0 mph W14.5 kmh W 17.0 mph27.4 kmh 30.12 in1020.0 mb 0.01 in0.3 mm 0.00 in/hr0.0 mm/hr 0.13 in3.3 mm
07:30 AM 49.3°F9.6°C 48.2°F9.0°C 96% 8.0 mph W12.9 kmh W 19.0 mph30.6 kmh 30.11 in1019.6 mb 0.01 in0.3 mm 0.00 in/hr0.0 mm/hr 0.13 in3.3 mm
07:20 AM 48.7°F9.3°C 47.7°F8.7°C 96% 8.0 mph W12.9 kmh W 19.0 mph30.6 kmh 30.11 in1019.6 mb 0.01 in0.3 mm 0.00 in/hr0.0 mm/hr 0.13 in3.3 mm
07:10 AM 48.0°F8.9°C 46.9°F8.3°C 96% 8.0 mph W12.9 kmh W 23.0 mph37.0 kmh 30.12 in1020.0 mb 0.01 in0.3 mm 0.00 in/hr0.0 mm/hr 0.13 in3.3 mm
07:00 AM 47.1°F8.4°C 46.0°F7.8°C 96% 6.0 mph W9.7 kmh W 14.0 mph22.5 kmh 30.11 in1019.6 mb 0.01 in0.3 mm 0.00 in/hr0.0 mm/hr 0.13 in3.3 mm
06:50 AM 46.0°F7.8°C 45.0°F7.2°C 96% 7.0 mph NW11.3 kmh NW 13.0 mph20.9 kmh 30.10 in1019.3 mb 0.01 in0.3 mm 0.00 in/hr0.0 mm/hr 0.12 in3.0 mm
06:40 AM 45.5°F7.5°C 44.4°F6.9°C 96% 8.0 mph NW12.9 kmh NW 16.0 mph25.7 kmh 30.10 in1019.3 mb 0.02 in0.5 mm 0.00 in/hr0.0 mm/hr 0.12 in3.0 mm
06:30 AM 45.0°F7.2°C 43.6°F6.4°C 95% 7.0 mph NW11.3 kmh NW 13.0 mph20.9 kmh 30.11 in1019.6 mb 0.03 in0.8 mm 0.00 in/hr0.0 mm/hr 0.12 in3.0 mm
06:20 AM 44.6°F7.0°C 43.3°F6.3°C 95% 8.0 mph NW12.9 kmh NW 16.0 mph25.7 kmh 30.10 in1019.3 mb 0.06 in1.5 mm 0.00 in/hr0.0 mm/hr 0.12 in3.0 mm
06:10 AM 44.4°F6.9°C 43.1°F6.2°C 95% 7.0 mph NW11.3 kmh NW 15.0 mph24.1 kmh 30.10 in1019.3 mb 0.06 in1.5 mm 0.00 in/hr0.0 mm/hr 0.12 in3.0 mm
06:00 AM 44.2°F6.8°C 42.9°F6.1°C 95% 7.0 mph NW11.3 kmh NW 16.0 mph25.7 kmh 30.10 in1019.3 mb 0.06 in1.5 mm 0.00 in/hr0.0 mm/hr 0.12 in3.0 mm
05:50 AM 44.1°F6.7°C 42.4°F5.8°C 94% 6.0 mph NW9.7 kmh NW 11.0 mph17.7 kmh 30.10 in1019.3 mb 0.06 in1.5 mm 0.00 in/hr0.0 mm/hr 0.11 in2.8 mm
05:40 AM 44.1°F6.7°C 42.2°F5.7°C 93% 6.0 mph NW9.7 kmh NW 11.0 mph17.7 kmh 30.10 in1019.3 mb 0.06 in1.5 mm 0.12 in/hr3.0 mm/hr 0.10 in2.5 mm
05:30 AM 44.2°F6.8°C 42.3°F5.7°C 93% 7.0 mph WNW11.3 kmh WNW 15.0 mph24.1 kmh 30.10 in1019.3 mb 0.04 in1.0 mm 0.12 in/hr3.0 mm/hr 0.09 in2.3 mm
05:20 AM 44.4°F6.9°C 42.5°F5.8°C 93% 8.0 mph WNW12.9 kmh WNW 16.0 mph25.7 kmh 30.09 in1019.0 mb 0.02 in0.5 mm 0.00 in/hr0.0 mm/hr 0.06 in1.5 mm
05:10 AM 44.2°F6.8°C 42.1°F5.6°C 92% 7.0 mph WNW11.3 kmh WNW 14.0 mph22.5 kmh 30.09 in1019.0 mb 0.02 in0.5 mm 0.06 in/hr1.5 mm/hr 0.06 in1.5 mm
05:00 AM 44.2°F6.8°C 41.8°F5.4°C 91% 8.0 mph NW12.9 kmh NW 14.0 mph22.5 kmh 30.08 in1018.6 mb 0.01 in0.3 mm 0.00 in/hr0.0 mm/hr 0.06 in1.5 mm
04:50 AM 44.4°F6.9°C 42.0°F5.6°C 91% 8.0 mph NW12.9 kmh NW 15.0 mph24.1 kmh 30.07 in1018.3 mb 0.01 in0.3 mm 0.06 in/hr1.5 mm/hr 0.06 in1.5 mm
04:40 AM 44.4°F6.9°C 41.7°F5.4°C 90% 7.0 mph NW11.3 kmh NW 14.0 mph22.5 kmh 30.07 in1018.3 mb 0.00 in0.0 mm 0.00 in/hr0.0 mm/hr 0.05 in1.3 mm
04:30 AM 44.2°F6.8°C 41.5°F5.3°C 90% 6.0 mph NW9.7 kmh NW 13.0 mph20.9 kmh 30.07 in1018.3 mb 0.00 in0.0 mm 0.00 in/hr0.0 mm/hr 0.05 in1.3 mm
04:20 AM 44.1°F6.7°C 41.3°F5.2°C 90% 6.0 mph NW9.7 kmh NW 11.0 mph17.7 kmh 30.06 in1017.9 mb 0.00 in0.0 mm 0.00 in/hr0.0 mm/hr 0.05 in1.3 mm
04:10 AM 44.1°F6.7°C 41.3°F5.2°C 90% 9.0 mph NW14.5 kmh NW 15.0 mph24.1 kmh 30.05 in1017.6 mb 0.00 in0.0 mm 0.00 in/hr0.0 mm/hr 0.05 in1.3 mm
04:00 AM 43.7°F6.5°C 41.2°F5.1°C 91% 8.0 mph NW12.9 kmh NW 19.0 mph30.6 kmh 30.05 in1017.6 mb 0.00 in0.0 mm 0.00 in/hr0.0 mm/hr 0.05 in1.3 mm
03:50 AM 43.5°F6.4°C 41.1°F5.1°C 91% 9.0 mph NW14.5 kmh NW 18.0 mph29.0 kmh 30.05 in1017.6 mb 0.01 in0.3 mm 0.00 in/hr0.0 mm/hr 0.05 in1.3 mm
03:40 AM 43.7°F6.5°C 41.2°F5.1°C 91% 9.0 mph NW14.5 kmh NW 15.0 mph24.1 kmh 30.05 in1017.6 mb 0.01 in0.3 mm 0.00 in/hr0.0 mm/hr 0.05 in1.3 mm
03:30 AM 43.5°F6.4°C 41.1°F5.1°C 91% 10.0 mph NW16.1 kmh NW 19.0 mph30.6 kmh 30.06 in1017.9 mb 0.01 in0.3 mm 0.00 in/hr0.0 mm/hr 0.05 in1.3 mm
03:20 AM 43.5°F6.4°C 41.4°F5.2°C 92% 9.0 mph NW14.5 kmh NW 15.0 mph24.1 kmh 30.06 in1017.9 mb 0.01 in0.3 mm 0.00 in/hr0.0 mm/hr 0.05 in1.3 mm
03:10 AM 43.5°F6.4°C 41.4°F5.2°C 92% 8.0 mph NW12.9 kmh NW 18.0 mph29.0 kmh 30.06 in1017.9 mb 0.01 in0.3 mm 0.00 in/hr0.0 mm/hr 0.05 in1.3 mm
03:00 AM 43.5°F6.4°C 41.4°F5.2°C 92% 8.0 mph NW12.9 kmh NW 18.0 mph29.0 kmh 30.07 in1018.3 mb 0.01 in0.3 mm 0.00 in/hr0.0 mm/hr 0.04 in1.0 mm
02:50 AM 43.3°F6.3°C 41.2°F5.1°C 92% 7.0 mph NW11.3 kmh NW 13.0 mph20.9 kmh 30.07 in1018.3 mb 0.01 in0.3 mm 0.00 in/hr0.0 mm/hr 0.04 in1.0 mm
02:40 AM 43.3°F6.3°C 41.2°F5.1°C 92% 7.0 mph NW11.3 kmh NW 17.0 mph27.4 kmh 30.07 in1018.3 mb 0.01 in0.3 mm 0.00 in/hr0.0 mm/hr 0.04 in1.0 mm
02:30 AM 43.2°F6.2°C 41.0°F5.0°C 92% 5.0 mph NW8.0 kmh NW 9.0 mph14.5 kmh 30.07 in1018.3 mb 0.01 in0.3 mm 0.00 in/hr0.0 mm/hr 0.04 in1.0 mm
02:20 AM 43.0°F6.1°C 40.5°F4.7°C 91% 6.0 mph NW9.7 kmh NW 11.0 mph17.7 kmh 30.07 in1018.3 mb 0.02 in0.5 mm 0.00 in/hr0.0 mm/hr 0.04 in1.0 mm
02:10 AM 43.0°F6.1°C 40.5°F4.7°C 91% 6.0 mph NW9.7 kmh NW 13.0 mph20.9 kmh 30.07 in1018.3 mb 0.02 in0.5 mm 0.00 in/hr0.0 mm/hr 0.04 in1.0 mm
02:00 AM 43.0°F6.1°C 40.2°F4.6°C 90% 8.0 mph NW12.9 kmh NW 15.0 mph24.1 kmh 30.07 in1018.3 mb 0.02 in0.5 mm 0.00 in/hr0.0 mm/hr 0.03 in0.8 mm
01:50 AM 43.0°F6.1°C 40.5°F4.7°C 91% 8.0 mph NW12.9 kmh NW 15.0 mph24.1 kmh 30.08 in1018.6 mb 0.02 in0.5 mm 0.00 in/hr0.0 mm/hr 0.03 in0.8 mm
01:40 AM 43.0°F6.1°C 40.2°F4.6°C 90% 7.0 mph NW11.3 kmh NW 16.0 mph25.7 kmh 30.08 in1018.6 mb 0.02 in0.5 mm 0.00 in/hr0.0 mm/hr 0.03 in0.8 mm
01:30 AM 43.3°F6.3°C 40.3°F4.6°C 89% 8.0 mph NW12.9 kmh NW 16.0 mph25.7 kmh 30.09 in1019.0 mb 0.02 in0.5 mm 0.00 in/hr0.0 mm/hr 0.03 in0.8 mm
01:20 AM 43.5°F6.4°C 40.2°F4.6°C 88% 9.0 mph NW14.5 kmh NW 19.0 mph30.6 kmh 30.09 in1019.0 mb 0.02 in0.5 mm 0.06 in/hr1.5 mm/hr 0.02 in0.5 mm
01:10 AM 43.3°F6.3°C 40.3°F4.6°C 89% 8.0 mph NW12.9 kmh NW 15.0 mph24.1 kmh 30.09 in1019.0 mb 0.01 in0.3 mm 0.00 in/hr0.0 mm/hr 0.02 in0.5 mm
01:00 AM 43.5°F6.4°C 40.2°F4.6°C 88% 8.0 mph NW12.9 kmh NW 15.0 mph24.1 kmh 30.09 in1019.0 mb 0.01 in0.3 mm 0.00 in/hr0.0 mm/hr 0.02 in0.5 mm
12:50 AM 43.9°F6.6°C 40.6°F4.8°C 88% 8.0 mph NW12.9 kmh NW 15.0 mph24.1 kmh 30.09 in1019.0 mb 0.01 in0.3 mm 0.00 in/hr0.0 mm/hr 0.02 in0.5 mm
12:40 AM 44.1°F6.7°C 40.4°F4.7°C 87% 9.0 mph NW14.5 kmh NW 16.0 mph25.7 kmh 30.09 in1019.0 mb 0.01 in0.3 mm 0.00 in/hr0.0 mm/hr 0.01 in0.3 mm
12:30 AM 44.1°F6.7°C 40.1°F4.5°C 86% 8.0 mph NW12.9 kmh NW 16.0 mph25.7 kmh 30.09 in1019.0 mb 0.01 in0.3 mm 0.00 in/hr0.0 mm/hr 0.01 in0.3 mm
12:20 AM 43.9°F6.6°C 40.3°F4.6°C 87% 8.0 mph NW12.9 kmh NW 16.0 mph25.7 kmh 30.08 in1018.6 mb 0.01 in0.3 mm 0.00 in/hr0.0 mm/hr 0.01 in0.3 mm
12:10 AM 43.9°F6.6°C 40.3°F4.6°C 87% 8.0 mph NW12.9 kmh NW 15.0 mph24.1 kmh 30.09 in1019.0 mb 0.01 in0.3 mm 0.00 in/hr0.0 mm/hr 0.01 in0.3 mm
12:00 AM 43.9°F6.6°C 40.6°F4.8°C 88% 7.0 mph NW11.3 kmh NW 14.0 mph22.5 kmh 30.09 in1019.0 mb 0.01 in0.3 mm 0.00 in/hr0.0 mm/hr 0.01 in0.3 mm